createdAt,value
2022-09-22T00:01:34.034Z,1.65
2022-09-22T00:04:07.380Z,2.05
2022-09-22T00:06:38.810Z,1.77
2022-09-22T00:09:10.266Z,2.28
2022-09-22T00:11:40.871Z,2.03
2022-09-22T00:14:10.646Z,2.13
2022-09-22T00:16:40.432Z,1.95
2022-09-22T00:19:08.517Z,2.10
2022-09-22T00:21:36.721Z,2.00
2022-09-22T00:24:07.275Z,2.10
2022-09-22T00:26:38.023Z,2.15
2022-09-22T00:29:08.169Z,1.70
2022-09-22T00:31:37.423Z,2.13
2022-09-22T00:34:05.986Z,2.17
2022-09-22T00:36:33.978Z,1.73
2022-09-22T00:39:01.993Z,1.85
2022-09-22T00:41:31.493Z,2.88
2022-09-22T00:44:35.933Z,2.17
2022-09-22T00:47:13.514Z,2.40
2022-09-22T00:49:48.838Z,2.08
2022-09-22T00:52:26.631Z,2.33
2022-09-22T00:54:57.940Z,2.33
2022-09-22T00:57:31.478Z,1.70
2022-09-22T01:00:02.524Z,2.17
2022-09-22T01:02:30.455Z,2.28
2022-09-22T01:04:58.761Z,2.28
2022-09-22T01:07:31.190Z,2.60
2022-09-22T01:10:00.045Z,2.28
2022-09-22T01:12:30.666Z,2.05
2022-09-22T01:15:13.537Z,2.10
2022-09-22T01:17:51.986Z,2.13
2022-09-22T01:20:54.722Z,2.30
2022-09-22T01:24:01.224Z,1.92
2022-09-22T01:27:01.336Z,2.58
2022-09-22T01:29:57.971Z,2.35
2022-09-22T01:32:32.151Z,2.40
2022-09-22T01:35:07.686Z,2.72
2022-09-22T01:37:44.479Z,2.20
2022-09-22T01:40:18.019Z,2.15
2022-09-22T01:42:50.831Z,2.58
2022-09-22T01:45:23.695Z,2.42
2022-09-22T01:47:56.583Z,2.40
2022-09-22T01:50:28.967Z,2.22
2022-09-22T01:53:00.993Z,2.33
2022-09-22T01:55:33.098Z,2.00
2022-09-22T01:58:05.946Z,2.40
2022-09-22T02:00:34.819Z,2.15
2022-09-22T02:03:09.356Z,2.90
2022-09-22T02:05:43.899Z,2.00
2022-09-22T02:08:17.043Z,2.22
2022-09-22T02:10:48.669Z,2.20
2022-09-22T02:13:16.959Z,1.90
2022-09-22T02:16:04.070Z,1.92
2022-09-22T02:18:40.579Z,2.00
2022-09-22T02:21:08.592Z,2.50
2022-09-22T02:23:36.567Z,1.83
2022-09-22T02:26:06.789Z,2.10
2022-09-22T02:28:37.805Z,2.00
2022-09-22T02:31:20.155Z,2.25
2022-09-22T02:33:50.866Z,2.10
2022-09-22T02:36:36.507Z,2.50
2022-09-22T02:39:09.970Z,2.35
2022-09-22T02:41:47.157Z,1.85
2022-09-22T02:44:19.913Z,2.40
2022-09-22T02:46:54.531Z,2.22
2022-09-22T02:49:25.930Z,2.20
2022-09-22T02:51:54.856Z,1.90
2022-09-22T02:54:23.226Z,1.88
2022-09-22T02:56:51.424Z,1.98
2022-09-22T02:59:19.711Z,2.25
2022-09-22T03:01:48.750Z,2.00
2022-09-22T03:04:16.837Z,2.40
2022-09-22T03:06:46.111Z,2.38
2022-09-22T03:09:16.588Z,2.33
2022-09-22T03:11:45.229Z,2.08
2022-09-22T03:14:13.193Z,2.50
2022-09-22T03:16:41.014Z,3.28
2022-09-22T03:19:08.986Z,3.88
2022-09-22T03:21:36.989Z,4.68
2022-09-22T03:24:06.981Z,2.85
2022-09-22T03:26:35.661Z,2.65
2022-09-22T03:29:03.597Z,2.30
2022-09-22T03:31:31.421Z,2.90
2022-09-22T03:33:59.461Z,2.33
2022-09-22T03:36:27.504Z,2.63
2022-09-22T03:38:55.471Z,2.47
2022-09-22T03:41:24.823Z,2.80
2022-09-22T03:43:52.928Z,2.70
2022-09-22T03:46:21.078Z,3.30
2022-09-22T03:48:49.081Z,2.45
2022-09-22T03:51:17.046Z,3.08
2022-09-22T03:53:45.561Z,2.97
2022-09-22T03:56:15.385Z,3.50
2022-09-22T03:58:45.133Z,2.78
2022-09-22T04:01:13.438Z,3.03
2022-09-22T04:03:41.599Z,3.08
2022-09-22T04:06:09.721Z,3.35
2022-09-22T04:08:37.680Z,2.60
2022-09-22T04:11:06.796Z,3.13
2022-09-22T04:13:35.508Z,3.47
2022-09-22T04:16:06.190Z,2.88
2022-09-22T04:18:34.365Z,2.78
2022-09-22T04:21:02.448Z,2.65
2022-09-22T04:23:30.303Z,3.28
2022-09-22T04:25:58.118Z,2.97
2022-09-22T04:28:26.122Z,2.80
2022-09-22T04:30:53.971Z,2.17
2022-09-22T04:33:23.579Z,2.78
2022-09-22T04:35:52.695Z,3.35
2022-09-22T04:38:21.056Z,3.13
2022-09-22T04:40:49.812Z,2.95
2022-09-22T04:43:17.803Z,3.30
2022-09-22T04:45:47.165Z,3.22
2022-09-22T04:48:15.249Z,2.80
2022-09-22T04:50:48.130Z,2.95
2022-09-22T04:53:16.411Z,2.75
2022-09-22T04:55:44.225Z,2.70
2022-09-22T04:58:12.104Z,3.20
2022-09-22T05:00:39.928Z,2.42
2022-09-22T05:03:09.666Z,2.72
2022-09-22T05:05:38.214Z,3.10
2022-09-22T05:08:07.762Z,2.80
2022-09-22T05:10:36.766Z,2.97
2022-09-22T05:13:05.789Z,3.67
2022-09-22T05:15:34.677Z,3.97
2022-09-22T05:18:02.859Z,2.85
2022-09-22T05:20:30.678Z,2.88
2022-09-22T05:22:58.664Z,3.22
2022-09-22T05:25:28.303Z,3.20
2022-09-22T05:27:56.830Z,2.97
2022-09-22T05:30:26.765Z,3.05
2022-09-22T05:32:55.051Z,3.17
2022-09-22T05:35:25.419Z,3.63
2022-09-22T05:37:54.280Z,3.45
2022-09-22T05:40:24.109Z,4.00
2022-09-22T05:42:54.638Z,2.95
2022-09-22T05:45:22.691Z,3.35
2022-09-22T05:47:50.971Z,3.40
2022-09-22T05:50:20.854Z,3.33
2022-09-22T05:52:48.875Z,3.30
2022-09-22T05:55:17.131Z,3.75
2022-09-22T05:57:44.949Z,3.00
2022-09-22T06:00:15.084Z,3.72
2022-09-22T06:02:44.722Z,3.97
2022-09-22T06:05:15.139Z,3.40
2022-09-22T06:07:44.666Z,3.28
2022-09-22T06:10:12.775Z,3.63
2022-09-22T06:12:41.000Z,3.40
2022-09-22T06:15:09.806Z,3.17
2022-09-22T06:17:39.039Z,3.85
2022-09-22T06:20:08.574Z,3.25
2022-09-22T06:22:37.210Z,2.90
2022-09-22T06:25:09.034Z,3.42
2022-09-22T06:27:37.016Z,3.90
2022-09-22T06:30:06.165Z,3.20
2022-09-22T06:32:34.261Z,4.15
2022-09-22T06:35:03.790Z,3.88
2022-09-22T06:37:32.499Z,4.20
2022-09-22T06:40:00.444Z,4.45
2022-09-22T06:42:28.411Z,4.35
2022-09-22T06:44:56.509Z,4.85
2022-09-22T06:47:24.383Z,5.18
2022-09-22T06:49:52.272Z,5.65
2022-09-22T06:52:21.490Z,5.28
2022-09-22T06:54:52.046Z,5.80
2022-09-22T06:57:23.394Z,5.53
2022-09-22T06:59:51.380Z,5.75
2022-09-22T07:02:20.151Z,6.18
2022-09-22T07:04:48.471Z,7.18
2022-09-22T07:07:16.512Z,7.05
2022-09-22T07:09:46.217Z,7.82
2022-09-22T07:12:14.422Z,7.38
2022-09-22T07:14:42.696Z,7.38
2022-09-22T07:17:10.551Z,7.90
2022-09-22T07:19:38.426Z,9.02
2022-09-22T07:22:06.844Z,9.48
2022-09-22T07:24:35.086Z,9.07
2022-09-22T07:27:07.182Z,10.43
2022-09-22T07:29:34.980Z,10.23
2022-09-22T07:32:03.908Z,10.95
2022-09-22T07:34:31.967Z,11.23
2022-09-22T07:37:00.522Z,11.75
2022-09-22T07:39:28.347Z,11.52
2022-09-22T07:41:56.257Z,12.00
2022-09-22T07:44:44.661Z,11.75
2022-09-22T07:47:13.760Z,11.40
2022-09-22T07:49:42.985Z,10.32
2022-09-22T07:52:10.843Z,10.60
2022-09-22T07:54:39.790Z,11.68
2022-09-22T07:57:09.487Z,10.50
2022-09-22T07:59:39.677Z,10.77
2022-09-22T08:02:08.125Z,10.57
2022-09-22T08:04:35.979Z,11.00
2022-09-22T08:07:03.997Z,10.48
2022-09-22T08:09:33.596Z,10.45
2022-09-22T08:12:02.234Z,10.23
2022-09-22T08:14:30.359Z,11.23
2022-09-22T08:16:59.810Z,10.15
2022-09-22T08:19:27.762Z,10.45
2022-09-22T08:21:55.573Z,10.80
2022-09-22T08:24:24.284Z,11.23
2022-09-22T08:26:54.773Z,10.85
2022-09-22T08:29:24.345Z,11.13
2022-09-22T08:31:52.350Z,10.32
2022-09-22T08:34:22.345Z,11.13
2022-09-22T08:36:50.186Z,10.13
2022-09-22T08:39:19.553Z,9.18
2022-09-22T08:41:59.873Z,10.35
2022-09-22T08:44:32.777Z,9.10
2022-09-22T08:47:02.873Z,10.32
2022-09-22T08:49:54.964Z,9.27
2022-09-22T08:52:29.096Z,9.18
2022-09-22T08:54:59.596Z,9.32
2022-09-22T08:57:41.702Z,9.52
2022-09-22T09:00:15.049Z,8.38
2022-09-22T09:02:46.628Z,8.98
2022-09-22T09:05:40.394Z,8.38
2022-09-22T09:08:21.757Z,7.28
2022-09-22T09:10:55.719Z,8.05
2022-09-22T09:13:41.043Z,8.25
2022-09-22T09:16:26.903Z,7.55
2022-09-22T09:19:01.622Z,8.18
2022-09-22T09:21:34.080Z,7.43
2022-09-22T09:26:56.955Z,7.88
2022-09-22T09:29:28.112Z,7.55
2022-09-22T09:31:58.053Z,8.07
2022-09-22T09:34:30.020Z,8.23
2022-09-22T09:37:08.497Z,7.45
2022-09-22T09:39:39.111Z,7.57
2022-09-22T09:42:18.012Z,7.13
2022-09-22T09:44:46.713Z,7.93
2022-09-22T09:47:23.912Z,7.85
2022-09-22T09:49:53.144Z,6.63
2022-09-22T09:52:26.254Z,6.22
2022-09-22T09:54:55.473Z,6.47
2022-09-22T09:57:27.889Z,6.00
2022-09-22T10:00:32.325Z,6.10
2022-09-22T10:03:14.775Z,5.75
2022-09-22T10:05:43.713Z,7.40
2022-09-22T10:08:23.494Z,5.97
2022-09-22T10:10:58.197Z,6.40
2022-09-22T10:13:38.134Z,6.10
2022-09-22T10:16:22.754Z,5.38
2022-09-22T10:18:52.329Z,5.50
2022-09-22T10:21:21.866Z,4.95
2022-09-22T10:23:53.019Z,5.18
2022-09-22T10:26:26.324Z,5.50
2022-09-22T10:29:21.045Z,5.65
2022-09-22T10:32:12.937Z,5.15
2022-09-22T10:34:42.288Z,5.18
2022-09-22T10:37:12.732Z,4.95
2022-09-22T10:39:46.363Z,4.40
2022-09-22T10:42:34.426Z,3.92
2022-09-22T10:45:05.678Z,4.10
2022-09-22T10:47:55.390Z,3.95
2022-09-22T10:50:38.080Z,3.90
2022-09-22T10:53:25.562Z,3.53
2022-09-22T10:56:01.495Z,3.15
2022-09-22T10:58:46.842Z,2.75
2022-09-22T11:01:32.119Z,3.28
2022-09-22T11:04:29.830Z,3.67
2022-09-22T11:07:34.093Z,3.58
2022-09-22T11:10:34.964Z,3.55
2022-09-22T11:13:14.638Z,3.30
2022-09-22T11:16:03.034Z,3.70
2022-09-22T11:18:46.643Z,3.65
2022-09-22T11:21:26.897Z,3.95
2022-09-22T11:24:10.054Z,3.30
2022-09-22T11:26:48.028Z,3.05
2022-09-22T11:29:52.477Z,3.00
2022-09-22T11:32:34.187Z,1.77
2022-09-22T11:35:21.205Z,2.53
2022-09-22T11:38:03.999Z,2.80
2022-09-22T11:40:50.230Z,2.30
2022-09-22T11:43:34.454Z,1.85
2022-09-22T11:46:11.864Z,2.25
2022-09-22T11:48:56.309Z,1.88
2022-09-22T11:51:38.634Z,2.05
2022-09-22T11:54:25.474Z,2.20
2022-09-22T11:56:57.868Z,1.95
2022-09-22T11:59:36.547Z,1.15
2022-09-22T12:02:17.411Z,1.45
2022-09-22T12:04:52.099Z,1.20
2022-09-22T12:07:28.027Z,1.00
2022-09-22T12:09:59.199Z,1.15
2022-09-22T12:12:32.671Z,1.00
2022-09-22T12:15:06.863Z,1.38
2022-09-22T12:17:42.110Z,1.15
2022-09-22T12:20:38.740Z,1.35
2022-09-22T12:23:28.811Z,1.27
2022-09-22T12:26:05.720Z,0.93
2022-09-22T12:28:40.147Z,0.82
2022-09-22T12:31:12.671Z,0.90
2022-09-22T12:33:48.587Z,1.50
2022-09-22T12:36:18.160Z,1.45
2022-09-22T12:38:46.633Z,0.93
2022-09-22T12:41:19.832Z,0.93
2022-09-22T12:43:48.763Z,1.17
2022-09-22T12:46:24.429Z,1.42
2022-09-22T12:48:53.940Z,1.02
2022-09-22T12:51:39.596Z,1.95
2022-09-22T12:54:38.695Z,1.33
2022-09-22T12:57:26.230Z,1.27
2022-09-22T13:00:06.721Z,1.20
2022-09-22T13:02:42.916Z,0.90
2022-09-22T13:05:45.544Z,1.10
2022-09-22T13:08:25.875Z,1.45
2022-09-22T13:11:01.475Z,2.67
2022-09-22T13:13:41.240Z,1.70
2022-09-22T13:16:37.403Z,1.58
2022-09-22T13:19:10.974Z,1.00
2022-09-22T13:21:41.723Z,1.63
2022-09-22T13:24:19.988Z,1.20
2022-09-22T13:26:47.936Z,0.90
2022-09-22T13:29:18.475Z,0.88
2022-09-22T13:31:48.520Z,1.00
2022-09-22T13:34:30.130Z,1.15
2022-09-22T13:37:02.002Z,1.20
2022-09-22T13:39:32.750Z,1.63
2022-09-22T13:42:06.654Z,1.30
2022-09-22T13:44:39.464Z,1.15
2022-09-22T13:47:13.574Z,1.02
2022-09-22T13:49:43.923Z,1.23
2022-09-22T13:52:17.927Z,1.30
2022-09-22T13:54:50.951Z,1.40
2022-09-22T13:57:23.964Z,1.38
2022-09-22T13:59:52.766Z,4.38
2022-09-22T14:02:28.136Z,1.63
2022-09-22T14:05:02.517Z,1.38
2022-09-22T14:07:44.991Z,1.50
2022-09-22T14:10:23.108Z,0.93
2022-09-22T14:12:51.591Z,0.88
2022-09-22T14:15:39.116Z,1.17
2022-09-22T14:18:12.343Z,0.90
2022-09-22T14:20:40.823Z,2.45
2022-09-22T14:23:21.134Z,2.35
2022-09-22T14:25:49.554Z,1.40
2022-09-22T14:28:22.022Z,1.02
2022-09-22T14:30:51.044Z,0.80
2022-09-22T14:33:22.462Z,1.05
2022-09-22T14:35:52.869Z,0.80
2022-09-22T14:38:24.041Z,2.15
2022-09-22T14:40:54.045Z,1.15
2022-09-22T14:43:24.967Z,0.93
2022-09-22T14:46:00.592Z,0.93
2022-09-22T14:48:31.199Z,0.82
2022-09-22T14:51:03.610Z,0.88
2022-09-22T14:53:36.193Z,1.10
2022-09-22T14:56:08.052Z,1.80
2022-09-22T14:58:40.481Z,1.60
2022-09-22T15:01:42.001Z,2.00
2022-09-22T15:04:18.288Z,1.05
2022-09-22T15:06:48.345Z,0.85
2022-09-22T15:09:27.444Z,0.98
2022-09-22T15:11:57.433Z,1.15
2022-09-22T15:14:43.040Z,0.90
2022-09-22T15:17:54.687Z,1.30
2022-09-22T15:20:24.760Z,0.90
2022-09-22T15:22:54.072Z,0.90
2022-09-22T15:25:24.127Z,0.65
2022-09-22T15:27:53.546Z,0.88
2022-09-22T15:30:22.652Z,1.00
2022-09-22T15:32:51.143Z,1.33
2022-09-22T15:35:20.352Z,1.20
2022-09-22T15:37:50.622Z,1.73
2022-09-22T15:40:21.209Z,1.00
2022-09-22T15:43:11.736Z,1.10
2022-09-22T15:45:46.521Z,1.45
2022-09-22T15:48:22.870Z,1.35
2022-09-22T15:50:51.345Z,1.10
2022-09-22T15:53:19.579Z,1.10
2022-09-22T15:55:48.489Z,1.05
2022-09-22T15:58:21.739Z,0.90
2022-09-22T16:00:58.509Z,1.00
2022-09-22T16:03:26.872Z,0.70
2022-09-22T16:06:00.865Z,0.93
2022-09-22T16:08:35.658Z,0.90
2022-09-22T16:11:07.500Z,0.82
2022-09-22T16:13:40.354Z,1.48
2022-09-22T16:16:10.346Z,1.00
2022-09-22T16:18:42.233Z,0.93
2022-09-22T16:21:19.882Z,0.98
2022-09-22T16:23:47.826Z,0.70
2022-09-22T16:26:16.302Z,0.98
2022-09-22T16:28:45.475Z,1.17
2022-09-22T16:31:14.494Z,0.82
2022-09-22T16:33:43.843Z,0.73
2022-09-22T16:36:12.016Z,0.65
2022-09-22T16:38:39.866Z,0.70
2022-09-22T16:41:18.147Z,1.00
2022-09-22T16:43:47.555Z,1.20
2022-09-22T16:46:28.250Z,0.70
2022-09-22T16:48:58.661Z,0.98
2022-09-22T16:51:27.206Z,1.13
2022-09-22T16:53:55.262Z,0.75
2022-09-22T16:56:24.544Z,1.13
2022-09-22T16:58:56.103Z,0.80
2022-09-22T17:01:24.763Z,1.00
2022-09-22T17:03:53.784Z,1.20
2022-09-22T17:06:24.428Z,1.10
2022-09-22T17:08:52.942Z,0.90
2022-09-22T17:11:23.435Z,1.02
2022-09-22T17:13:51.328Z,0.80
2022-09-22T17:16:24.654Z,1.30
2022-09-22T17:18:54.664Z,1.52
2022-09-22T17:21:23.627Z,2.28
2022-09-22T17:24:00.349Z,3.60
2022-09-22T17:26:29.897Z,2.38
2022-09-22T17:28:59.587Z,1.75
2022-09-22T17:31:31.350Z,4.10
2022-09-22T17:33:59.971Z,3.53
2022-09-22T17:36:29.327Z,4.00
2022-09-22T17:38:59.247Z,2.13
2022-09-22T17:41:29.555Z,1.42
2022-09-22T17:44:01.090Z,1.33
2022-09-22T17:46:32.651Z,1.92
2022-09-22T17:49:18.674Z,5.93
2022-09-22T17:52:05.986Z,3.45
2022-09-22T17:54:52.914Z,3.42
2022-09-22T17:57:22.947Z,2.55
2022-09-22T17:59:51.242Z,2.00
2022-09-22T18:02:21.737Z,1.83
2022-09-22T18:04:50.225Z,2.05
2022-09-22T18:07:20.644Z,2.15
2022-09-22T18:09:51.479Z,2.00
2022-09-22T18:12:23.066Z,2.20
2022-09-22T18:14:53.208Z,2.10
2022-09-22T18:17:24.851Z,2.33
2022-09-22T18:19:55.009Z,2.40
2022-09-22T18:22:24.907Z,2.65
2022-09-22T18:24:55.691Z,4.88
2022-09-22T18:27:26.879Z,4.43
2022-09-22T18:29:58.799Z,2.20
2022-09-22T18:32:29.147Z,2.78
2022-09-22T18:34:57.151Z,2.55
2022-09-22T18:37:26.877Z,2.85
2022-09-22T18:39:55.185Z,2.92
2022-09-22T18:42:25.156Z,2.85
2022-09-22T18:44:53.586Z,3.03
2022-09-22T18:47:23.202Z,2.28
2022-09-22T18:49:52.658Z,2.38
2022-09-22T18:52:24.795Z,2.72
2022-09-22T18:54:54.747Z,2.67
2022-09-22T18:57:24.567Z,2.30
2022-09-22T18:59:52.485Z,3.30
2022-09-22T19:02:22.372Z,2.90
2022-09-22T19:04:52.507Z,3.03
2022-09-22T19:07:42.524Z,2.55
2022-09-22T19:10:12.391Z,2.72
2022-09-22T19:12:40.531Z,2.90
2022-09-22T19:15:13.614Z,2.50
2022-09-22T19:17:44.145Z,2.80
2022-09-22T19:20:14.982Z,2.60
2022-09-22T19:22:43.367Z,2.53
2022-09-22T19:25:11.811Z,2.78
2022-09-22T19:27:39.767Z,2.45
2022-09-22T19:30:08.801Z,2.95
2022-09-22T19:32:37.162Z,2.80
2022-09-22T19:35:06.240Z,3.08
2022-09-22T19:37:35.793Z,2.80
2022-09-22T19:40:04.006Z,2.67
2022-09-22T19:42:32.040Z,2.72
2022-09-22T19:45:00.116Z,2.90
2022-09-22T19:47:28.031Z,3.22
2022-09-22T19:49:56.365Z,2.97
2022-09-22T19:52:24.358Z,3.15
2022-09-22T19:54:53.658Z,3.13
2022-09-22T19:57:21.588Z,3.38
2022-09-22T19:59:50.759Z,2.85
2022-09-22T20:02:20.504Z,3.17
2022-09-22T20:04:48.918Z,3.50
2022-09-22T20:07:16.826Z,3.65
2022-09-22T20:09:44.887Z,3.97
2022-09-22T20:12:16.048Z,3.92
2022-09-22T20:14:42.931Z,3.50
2022-09-22T20:17:10.898Z,4.18
2022-09-22T20:19:42.071Z,4.13
2022-09-22T20:22:25.400Z,4.47
2022-09-22T20:24:55.611Z,3.55
2022-09-22T20:27:29.382Z,3.53
2022-09-22T20:29:57.801Z,4.07
2022-09-22T20:32:26.322Z,3.70
2022-09-22T20:34:55.424Z,4.00
2022-09-22T20:37:24.400Z,3.95
2022-09-22T20:39:52.672Z,3.67
2022-09-22T20:42:20.941Z,3.45
2022-09-22T20:44:50.658Z,3.70
2022-09-22T20:47:21.979Z,3.88
2022-09-22T20:49:51.969Z,3.13
2022-09-22T20:52:21.708Z,3.55
2022-09-22T20:54:50.006Z,3.45
2022-09-22T20:57:18.485Z,3.47
2022-09-22T20:59:47.663Z,3.45
2022-09-22T21:02:17.423Z,4.55
2022-09-22T21:04:45.416Z,3.83
2022-09-22T21:07:13.638Z,4.40
2022-09-22T21:10:01.978Z,4.07
2022-09-22T21:12:31.728Z,4.13
2022-09-22T21:15:00.441Z,3.95
2022-09-22T21:17:32.891Z,4.32
2022-09-22T21:20:01.016Z,3.85
2022-09-22T21:22:29.295Z,3.95
2022-09-22T21:24:57.514Z,4.38
2022-09-22T21:27:25.690Z,4.57
2022-09-22T21:29:54.161Z,4.00
2022-09-22T21:32:22.199Z,4.10
2022-09-22T21:34:51.649Z,4.15
2022-09-22T21:37:19.683Z,4.57
2022-09-22T21:39:47.732Z,4.45
2022-09-22T21:42:15.715Z,4.75
2022-09-22T21:44:43.996Z,4.10
2022-09-22T21:47:11.956Z,4.22
2022-09-22T21:49:39.881Z,4.20
2022-09-22T21:52:09.099Z,4.97
2022-09-22T21:54:37.257Z,4.07
2022-09-22T21:57:05.290Z,4.53
2022-09-22T21:59:33.187Z,4.43
2022-09-22T22:02:01.176Z,4.60
2022-09-22T22:04:29.192Z,4.32
2022-09-22T22:06:57.074Z,4.53
2022-09-22T22:09:26.547Z,5.03
2022-09-22T22:11:56.839Z,5.40
2022-09-22T22:14:26.791Z,4.05
2022-09-22T22:16:56.131Z,4.85
2022-09-22T22:19:26.926Z,4.78
2022-09-22T22:21:55.985Z,4.32
2022-09-22T22:24:34.947Z,4.53
2022-09-22T22:27:05.984Z,4.03
2022-09-22T22:29:36.455Z,4.80
2022-09-22T22:32:06.167Z,4.60
2022-09-22T22:34:34.197Z,5.00
2022-09-22T22:37:03.961Z,4.57
2022-09-22T22:39:33.404Z,4.20
2022-09-22T22:42:02.187Z,4.68
2022-09-22T22:44:30.233Z,5.40
2022-09-22T22:46:58.503Z,4.80
2022-09-22T22:49:28.167Z,5.18
2022-09-22T22:51:56.291Z,4.85
2022-09-22T22:54:24.088Z,4.95
2022-09-22T22:56:53.383Z,5.18
2022-09-22T22:59:21.440Z,4.95
2022-09-22T23:01:49.679Z,4.40
2022-09-22T23:04:17.630Z,4.57
2022-09-22T23:06:47.320Z,5.35
2022-09-22T23:09:17.136Z,4.72
2022-09-22T23:11:46.411Z,4.88
2022-09-22T23:14:17.206Z,5.00
2022-09-22T23:16:47.088Z,5.07
2022-09-22T23:19:17.931Z,5.72
2022-09-22T23:21:46.906Z,5.00
2022-09-22T23:24:16.222Z,4.88
2022-09-22T23:26:44.439Z,4.85
2022-09-22T23:29:12.389Z,4.85
2022-09-22T23:31:42.217Z,4.82
2022-09-22T23:34:10.142Z,4.05
2022-09-22T23:36:39.703Z,3.88
2022-09-22T23:39:07.933Z,5.22
2022-09-22T23:41:37.577Z,4.90
2022-09-22T23:44:07.093Z,4.78
2022-09-22T23:46:35.271Z,4.35
2022-09-22T23:49:05.529Z,5.03
2022-09-22T23:51:33.621Z,4.82
2022-09-22T23:54:05.807Z,5.38
2022-09-22T23:56:33.757Z,5.28
2022-09-22T23:59:01.782Z,5.40
